createdAt,value
2023-02-18T00:00:43.633Z,8.00
2023-02-18T00:03:12.819Z,8.30
2023-02-18T00:05:43.398Z,8.10
2023-02-18T00:08:12.641Z,8.20
2023-02-18T00:10:43.030Z,8.10
2023-02-18T00:13:12.143Z,8.20
2023-02-18T00:15:41.656Z,8.10
2023-02-18T00:18:10.777Z,8.20
2023-02-18T00:20:42.671Z,8.10
2023-02-18T00:23:30.117Z,8.30
2023-02-18T00:26:03.184Z,8.00
2023-02-18T00:28:32.498Z,8.20
2023-02-18T00:31:07.172Z,8.20
2023-02-18T00:33:36.427Z,8.10
2023-02-18T00:36:09.088Z,8.00
2023-02-18T00:38:38.913Z,8.20
2023-02-18T00:41:08.315Z,8.20
2023-02-18T00:43:38.115Z,8.10
2023-02-18T00:46:08.491Z,8.00
2023-02-18T00:48:37.959Z,8.10
2023-02-18T00:51:09.428Z,7.90
2023-02-18T00:53:39.299Z,7.90
2023-02-18T00:56:09.514Z,7.90
2023-02-18T00:58:38.878Z,8.10
2023-02-18T01:01:09.796Z,8.00
2023-02-18T01:03:39.681Z,8.00
2023-02-18T01:06:11.126Z,7.80
2023-02-18T01:08:42.007Z,8.00
2023-02-18T01:11:12.463Z,7.90
2023-02-18T01:13:43.274Z,7.90
2023-02-18T01:16:12.663Z,8.00
2023-02-18T01:18:42.310Z,7.80
2023-02-18T01:21:13.003Z,7.90
2023-02-18T01:23:43.126Z,7.90
2023-02-18T01:26:12.981Z,8.00
2023-02-18T01:28:42.744Z,7.80
2023-02-18T01:31:14.107Z,8.10
2023-02-18T01:33:43.940Z,8.00
2023-02-18T01:36:15.103Z,7.80
2023-02-18T01:38:44.275Z,7.70
2023-02-18T01:41:13.581Z,8.10
2023-02-18T01:44:00.051Z,8.00
2023-02-18T01:49:19.667Z,8.10
2023-02-18T01:51:53.680Z,8.00
2023-02-18T01:54:27.739Z,8.10
2023-02-18T01:57:17.156Z,8.30
2023-02-18T01:59:51.100Z,8.30
2023-02-18T02:02:22.396Z,8.20
2023-02-18T02:04:52.347Z,8.10
2023-02-18T02:07:25.308Z,8.10
2023-02-18T02:09:59.349Z,8.10
2023-02-18T02:12:53.507Z,8.40
2023-02-18T02:15:49.295Z,8.20
2023-02-18T02:18:37.800Z,8.30
2023-02-18T02:21:56.176Z,8.20
2023-02-18T02:28:35.076Z,8.40
2023-02-18T02:35:04.944Z,8.50
2023-02-18T02:37:40.228Z,8.20
2023-02-18T02:40:20.316Z,8.20
2023-02-18T02:43:06.227Z,8.10
2023-02-18T02:45:47.338Z,8.20
2023-02-18T02:48:25.519Z,8.40
2023-02-18T02:51:04.846Z,8.30
2023-02-18T02:53:37.576Z,8.30
2023-02-18T02:56:07.197Z,8.40
2023-02-18T02:58:36.562Z,8.30
2023-02-18T03:04:22.441Z,8.40
2023-02-18T03:07:20.222Z,8.30
2023-02-18T03:10:04.297Z,8.40
2023-02-18T03:12:38.814Z,8.10
2023-02-18T03:15:17.835Z,8.20
2023-02-18T03:17:53.514Z,8.20
2023-02-18T03:20:28.417Z,8.30
2023-02-18T03:23:03.087Z,8.40
2023-02-18T03:25:51.282Z,8.20
2023-02-18T03:28:24.768Z,8.20
2023-02-18T03:30:57.773Z,8.20
2023-02-18T03:33:32.800Z,8.20
2023-02-18T03:36:02.510Z,8.20
2023-02-18T03:38:57.951Z,8.60
2023-02-18T03:41:27.260Z,8.40
2023-02-18T03:44:00.856Z,8.50
2023-02-18T03:46:31.159Z,8.30
2023-02-18T03:49:01.305Z,8.60
2023-02-18T03:51:30.765Z,8.70
2023-02-18T03:54:01.452Z,8.40
2023-02-18T03:56:30.637Z,8.10
2023-02-18T03:58:59.843Z,8.10
2023-02-18T04:01:29.239Z,8.40
2023-02-18T04:03:58.358Z,8.20
2023-02-18T04:06:27.488Z,8.20
2023-02-18T04:08:56.678Z,8.30
2023-02-18T04:11:27.214Z,8.20
2023-02-18T04:14:13.734Z,8.30
2023-02-18T04:16:43.128Z,8.40
2023-02-18T04:19:12.244Z,8.20
2023-02-18T04:21:41.369Z,8.30
2023-02-18T04:24:10.541Z,8.30
2023-02-18T04:26:41.277Z,8.30
2023-02-18T04:34:43.199Z,8.40
2023-02-18T04:37:12.348Z,8.50
2023-02-18T04:39:41.657Z,8.40
2023-02-18T04:44:58.488Z,8.30
2023-02-18T04:47:28.219Z,8.30
2023-02-18T04:53:02.548Z,8.50
2023-02-18T04:55:31.631Z,8.40
2023-02-18T04:58:02.161Z,8.50
2023-02-18T05:00:31.265Z,8.30
2023-02-18T05:03:00.286Z,8.50
2023-02-18T05:05:46.752Z,8.30
2023-02-18T05:08:16.538Z,8.40
2023-02-18T05:10:45.688Z,8.30
2023-02-18T05:13:16.280Z,8.40
2023-02-18T05:15:45.510Z,8.30
2023-02-18T05:18:14.472Z,8.30
2023-02-18T05:20:43.674Z,8.40
2023-02-18T05:23:12.705Z,8.40
2023-02-18T05:25:41.776Z,8.50
2023-02-18T05:28:10.869Z,8.40
2023-02-18T05:30:41.499Z,8.30
2023-02-18T05:33:11.404Z,8.30
2023-02-18T05:35:40.397Z,8.20
2023-02-18T05:38:10.195Z,8.30
2023-02-18T05:40:56.516Z,8.30
2023-02-18T05:43:25.520Z,8.20
2023-02-18T05:45:55.915Z,8.20
2023-02-18T05:48:24.904Z,8.40
2023-02-18T05:50:56.163Z,8.30
2023-02-18T05:53:25.276Z,8.50
2023-02-18T05:58:59.722Z,8.10
2023-02-18T06:01:31.231Z,8.30
2023-02-18T06:04:00.391Z,8.20
2023-02-18T06:06:29.503Z,8.40
2023-02-18T06:08:58.552Z,8.40
2023-02-18T06:11:30.051Z,8.30
2023-02-18T06:13:59.303Z,8.30
2023-02-18T06:16:31.701Z,8.50
2023-02-18T06:19:01.372Z,8.50
2023-02-18T06:21:30.342Z,8.40
2023-02-18T06:24:18.029Z,8.40
2023-02-18T06:26:47.251Z,8.40
2023-02-18T06:29:16.268Z,8.70
2023-02-18T06:31:46.874Z,8.40
2023-02-18T06:34:16.081Z,8.70
2023-02-18T06:36:45.047Z,8.60
2023-02-18T06:39:14.657Z,8.50
2023-02-18T06:41:43.831Z,8.50
2023-02-18T06:44:15.564Z,8.50
2023-02-18T06:49:51.357Z,8.70
2023-02-18T06:52:20.418Z,8.70
2023-02-18T06:54:49.415Z,8.70
2023-02-18T06:57:18.626Z,8.60
2023-02-18T06:59:47.800Z,8.70
2023-02-18T07:02:18.699Z,8.70
2023-02-18T07:04:47.743Z,8.80
2023-02-18T07:07:16.863Z,8.60
2023-02-18T07:09:45.954Z,8.70
2023-02-18T07:12:15.165Z,8.70
2023-02-18T07:14:44.235Z,8.80
2023-02-18T07:17:13.332Z,8.70
2023-02-18T07:19:43.867Z,8.60
2023-02-18T07:22:12.945Z,8.80
2023-02-18T07:24:41.977Z,8.70
2023-02-18T07:27:11.026Z,9.40
2023-02-18T07:29:39.992Z,8.80
2023-02-18T07:32:09.210Z,9.00
2023-02-18T07:34:38.157Z,8.90
2023-02-18T07:37:09.710Z,8.70
2023-02-18T07:39:41.157Z,8.70
2023-02-18T07:42:13.532Z,8.90
2023-02-18T07:44:43.153Z,8.80
2023-02-18T07:47:15.812Z,8.90
2023-02-18T07:49:45.065Z,8.90
2023-02-18T07:52:16.516Z,8.90
2023-02-18T07:54:45.498Z,8.90
2023-02-18T07:57:14.551Z,8.90
2023-02-18T07:59:43.723Z,9.00
2023-02-18T08:02:22.820Z,9.20
2023-02-18T08:04:52.225Z,9.20
2023-02-18T08:07:24.526Z,9.10
2023-02-18T08:09:53.572Z,9.00
2023-02-18T08:12:22.541Z,9.10
2023-02-18T08:14:51.684Z,9.30
2023-02-18T08:17:20.707Z,9.30
2023-02-18T08:19:49.675Z,9.30
2023-02-18T08:22:18.748Z,9.40
2023-02-18T08:24:49.436Z,9.40
2023-02-18T08:27:18.431Z,9.30
2023-02-18T08:29:47.973Z,9.40
2023-02-18T08:32:16.969Z,9.40
2023-02-18T08:34:46.035Z,9.40
2023-02-18T08:37:15.096Z,9.40
2023-02-18T08:39:44.148Z,9.50
2023-02-18T08:42:14.899Z,9.60
2023-02-18T08:44:43.962Z,9.40
2023-02-18T08:48:13.286Z,9.50
2023-02-18T08:50:19.315Z,9.50
2023-02-18T08:52:48.524Z,9.50
2023-02-18T08:55:20.953Z,9.60
2023-02-18T08:57:51.635Z,9.60
2023-02-18T09:00:40.495Z,9.70
2023-02-18T09:03:09.555Z,9.60
2023-02-18T09:05:40.509Z,9.80
2023-02-18T09:08:10.266Z,9.60
2023-02-18T09:13:28.147Z,9.80
2023-02-18T09:16:01.831Z,9.70
2023-02-18T09:18:30.937Z,9.70
2023-02-18T09:21:01.486Z,9.80
2023-02-18T09:23:32.550Z,9.50
2023-02-18T09:26:01.985Z,9.90
2023-02-18T09:28:32.514Z,9.90
2023-02-18T09:31:07.023Z,9.70
2023-02-18T09:33:38.682Z,9.80
2023-02-18T09:36:08.602Z,9.60
2023-02-18T09:38:37.999Z,9.60
2023-02-18T09:41:10.944Z,9.80
2023-02-18T09:43:45.139Z,10.00
2023-02-18T09:46:21.624Z,9.50
2023-02-18T09:48:51.508Z,9.90
2023-02-18T09:51:21.819Z,10.10
2023-02-18T09:53:51.017Z,9.90
2023-02-18T09:56:25.152Z,9.90
2023-02-18T09:58:56.770Z,10.10
2023-02-18T10:01:32.298Z,10.10
2023-02-18T10:04:05.171Z,10.20
2023-02-18T10:06:36.825Z,10.00
2023-02-18T10:09:30.368Z,10.10
2023-02-18T10:12:04.397Z,10.00
2023-02-18T10:14:36.220Z,10.10
2023-02-18T10:17:05.911Z,10.20
2023-02-18T10:19:39.114Z,10.10
2023-02-18T10:22:09.861Z,10.00
2023-02-18T10:24:44.285Z,10.10
2023-02-18T10:27:37.702Z,10.00
2023-02-18T10:30:25.165Z,10.20
2023-02-18T10:33:02.436Z,10.30
2023-02-18T10:35:54.543Z,10.20
2023-02-18T10:38:35.371Z,10.40
2023-02-18T10:44:03.331Z,10.40
2023-02-18T10:46:44.416Z,10.40
2023-02-18T10:50:11.252Z,10.40
2023-02-18T10:52:44.130Z,10.40
2023-02-18T10:55:16.237Z,10.50
2023-02-18T10:57:50.572Z,10.60
2023-02-18T11:00:24.273Z,10.60
2023-02-18T11:03:20.422Z,10.70
2023-02-18T11:05:52.226Z,10.70
2023-02-18T11:08:24.380Z,10.70
2023-02-18T11:10:54.431Z,10.80
2023-02-18T11:13:28.932Z,10.70
2023-02-18T11:16:17.437Z,10.70
2023-02-18T11:18:48.729Z,10.80
2023-02-18T11:21:32.302Z,10.80
2023-02-18T11:24:28.581Z,10.90
2023-02-18T11:32:31.530Z,11.00
2023-02-18T11:35:19.983Z,11.00
2023-02-18T11:37:49.379Z,10.90
2023-02-18T11:40:24.958Z,10.80
2023-02-18T11:43:03.453Z,10.90
2023-02-18T11:45:34.971Z,10.90
2023-02-18T11:48:08.818Z,10.90
2023-02-18T11:50:39.292Z,11.00
2023-02-18T11:53:30.089Z,11.10
2023-02-18T11:56:01.306Z,11.10
2023-02-18T11:58:38.602Z,11.30
2023-02-18T12:01:14.606Z,11.20
2023-02-18T12:03:48.633Z,11.00
2023-02-18T12:06:25.817Z,11.00
2023-02-18T12:09:01.263Z,11.00
2023-02-18T12:11:37.599Z,11.00
2023-02-18T12:14:14.343Z,10.90
2023-02-18T12:16:50.320Z,11.00
2023-02-18T12:19:39.751Z,10.90
2023-02-18T12:22:17.734Z,10.80
2023-02-18T12:25:09.095Z,10.90
2023-02-18T12:27:45.978Z,11.00
2023-02-18T12:31:11.226Z,11.00
2023-02-18T12:33:53.300Z,11.10
2023-02-18T12:36:38.760Z,11.10
2023-02-18T12:39:27.857Z,11.10
2023-02-18T12:42:07.740Z,10.90
2023-02-18T12:44:45.823Z,11.00
2023-02-18T12:47:32.836Z,10.90
2023-02-18T12:50:22.476Z,11.10
2023-02-18T12:53:06.856Z,11.30
2023-02-18T12:56:07.696Z,11.40
2023-02-18T12:59:06.960Z,11.30
2023-02-18T13:01:44.756Z,11.00
2023-02-18T13:04:46.465Z,11.40
2023-02-18T13:07:31.159Z,11.00
2023-02-18T13:10:26.895Z,11.50
2023-02-18T13:15:54.200Z,11.60
2023-02-18T13:18:29.148Z,11.40
2023-02-18T13:21:03.427Z,11.50
2023-02-18T13:23:37.585Z,11.60
2023-02-18T13:26:10.072Z,11.50
2023-02-18T13:28:46.222Z,11.20
2023-02-18T13:31:36.849Z,11.10
2023-02-18T13:34:13.512Z,11.00
2023-02-18T13:37:01.359Z,10.90
2023-02-18T13:39:30.797Z,10.90
2023-02-18T13:42:24.230Z,11.10
2023-02-18T13:45:26.543Z,11.30
2023-02-18T13:47:56.615Z,11.40
2023-02-18T13:50:41.144Z,11.30
2023-02-18T13:53:25.307Z,11.30
2023-02-18T13:56:02.100Z,11.20
2023-02-18T13:58:43.697Z,11.20
2023-02-18T14:01:24.104Z,11.30
2023-02-18T14:03:56.395Z,11.50
2023-02-18T14:06:27.631Z,11.40
2023-02-18T14:09:26.730Z,11.60
2023-02-18T14:11:57.961Z,11.60
2023-02-18T14:14:40.268Z,11.60
2023-02-18T14:17:39.928Z,11.60
2023-02-18T14:20:52.801Z,11.60
2023-02-18T14:23:44.793Z,11.50
2023-02-18T14:29:32.556Z,11.40
2023-02-18T14:32:05.374Z,11.30
2023-02-18T14:35:06.312Z,11.20
2023-02-18T14:38:14.770Z,11.00
2023-02-18T14:44:12.547Z,11.20
2023-02-18T14:46:52.978Z,11.00
2023-02-18T14:49:38.285Z,10.90
2023-02-18T14:55:05.336Z,11.00
2023-02-18T14:57:40.295Z,11.10
2023-02-18T15:00:17.873Z,11.10
2023-02-18T15:02:50.674Z,11.00
2023-02-18T15:05:22.643Z,11.10
2023-02-18T15:08:01.853Z,11.20
2023-02-18T15:10:38.760Z,11.10
2023-02-18T15:13:30.842Z,11.10
2023-02-18T15:16:19.382Z,11.10
2023-02-18T15:18:55.460Z,10.80
2023-02-18T15:21:29.338Z,10.90
2023-02-18T15:24:07.006Z,10.80
2023-02-18T15:26:38.398Z,10.90
2023-02-18T15:29:08.183Z,10.80
2023-02-18T15:31:41.099Z,10.90
2023-02-18T15:34:34.490Z,10.80
2023-02-18T15:37:05.466Z,10.80
2023-02-18T15:39:38.804Z,10.80
2023-02-18T15:42:16.179Z,10.70
2023-02-18T15:44:49.489Z,10.80
2023-02-18T15:47:19.873Z,10.80
2023-02-18T15:49:51.961Z,10.60
2023-02-18T15:52:29.119Z,10.70
2023-02-18T15:55:05.610Z,10.70
2023-02-18T15:57:37.811Z,10.70
2023-02-18T16:00:15.608Z,10.60
2023-02-18T16:02:58.865Z,10.60
2023-02-18T16:05:29.686Z,10.70
2023-02-18T16:08:07.350Z,10.70
2023-02-18T16:10:50.908Z,10.60
2023-02-18T16:13:21.009Z,10.20
2023-02-18T16:15:51.925Z,10.60
2023-02-18T16:18:32.891Z,10.80
2023-02-18T16:21:04.732Z,10.60
2023-02-18T16:23:38.517Z,10.60
2023-02-18T16:26:28.474Z,10.60
2023-02-18T16:29:02.419Z,10.50
2023-02-18T16:31:31.679Z,10.50
2023-02-18T16:34:19.343Z,10.60
2023-02-18T16:37:02.238Z,10.60
2023-02-18T16:39:34.491Z,10.70
2023-02-18T16:42:04.986Z,10.60
2023-02-18T16:44:52.831Z,10.50
2023-02-18T16:47:22.032Z,10.50
2023-02-18T16:49:53.698Z,10.50
2023-02-18T16:52:40.022Z,10.40
2023-02-18T16:55:21.277Z,10.30
2023-02-18T16:58:08.875Z,10.50
2023-02-18T17:00:38.777Z,10.40
2023-02-18T17:03:08.334Z,10.40
2023-02-18T17:05:40.450Z,10.20
2023-02-18T17:11:06.058Z,10.20
2023-02-18T17:13:36.592Z,10.30
2023-02-18T17:16:05.972Z,10.20
2023-02-18T17:18:35.103Z,10.40
2023-02-18T17:21:04.502Z,10.30
2023-02-18T17:23:33.556Z,10.30
2023-02-18T17:26:19.762Z,10.20
2023-02-18T17:28:50.252Z,10.20
2023-02-18T17:31:23.355Z,10.30
2023-02-18T17:33:53.492Z,10.40
2023-02-18T17:36:24.703Z,10.20
2023-02-18T17:38:54.411Z,10.40
2023-02-18T17:41:23.617Z,10.40
2023-02-18T17:43:54.488Z,10.20
2023-02-18T17:46:23.755Z,10.30
2023-02-18T17:48:52.808Z,10.30
2023-02-18T17:51:28.205Z,10.40
2023-02-18T17:53:57.698Z,10.20
2023-02-18T17:56:28.229Z,10.20
2023-02-18T17:58:58.786Z,10.30
2023-02-18T18:01:27.978Z,10.30
2023-02-18T18:03:57.189Z,10.20
2023-02-18T18:06:26.286Z,10.30
2023-02-18T18:08:55.415Z,10.20
2023-02-18T18:11:26.431Z,10.30
2023-02-18T18:13:55.515Z,10.30
2023-02-18T18:16:25.970Z,10.30
2023-02-18T18:18:55.110Z,10.30
2023-02-18T18:21:29.629Z,10.30
2023-02-18T18:23:58.735Z,10.30
2023-02-18T18:26:27.946Z,10.50
2023-02-18T18:28:57.227Z,10.50
2023-02-18T18:31:27.926Z,10.70
2023-02-18T18:33:57.823Z,10.50
2023-02-18T18:36:45.237Z,10.60
2023-02-18T18:39:14.339Z,10.50
2023-02-18T18:41:43.467Z,10.40
2023-02-18T18:44:13.487Z,10.50
2023-02-18T18:46:44.070Z,10.40
2023-02-18T18:49:13.073Z,10.50
2023-02-18T18:51:59.509Z,10.40
2023-02-18T18:54:28.991Z,10.40
2023-02-18T18:56:58.368Z,10.50
2023-02-18T18:59:27.499Z,10.50
2023-02-18T19:01:58.168Z,10.50
2023-02-18T19:04:28.229Z,10.60
2023-02-18T19:06:57.364Z,10.50
2023-02-18T19:09:26.359Z,10.50
2023-02-18T19:11:55.478Z,10.40
2023-02-18T19:14:25.508Z,10.10
2023-02-18T19:16:56.437Z,10.10
2023-02-18T19:22:13.673Z,10.00
2023-02-18T19:24:43.132Z,10.10
2023-02-18T19:27:14.523Z,10.00
2023-02-18T19:32:49.122Z,10.20
2023-02-18T19:35:20.142Z,10.00
2023-02-18T19:40:35.804Z,10.10
2023-02-18T19:45:51.305Z,10.20
2023-02-18T19:48:37.476Z,10.00
2023-02-18T19:51:09.877Z,10.10
2023-02-18T19:56:25.856Z,10.20
2023-02-18T19:58:57.566Z,10.30
2023-02-18T20:01:26.753Z,10.30
2023-02-18T20:04:14.458Z,10.20
2023-02-18T20:06:45.152Z,10.10
2023-02-18T20:09:14.206Z,10.20
2023-02-18T20:11:43.253Z,10.40
2023-02-18T20:14:12.401Z,10.30
2023-02-18T20:16:41.717Z,10.30
2023-02-18T20:19:10.696Z,10.20
2023-02-18T20:21:39.754Z,10.50
2023-02-18T20:24:12.263Z,10.20
2023-02-18T20:26:41.350Z,10.20
2023-02-18T20:29:12.950Z,10.30
2023-02-18T20:31:42.880Z,10.20
2023-02-18T20:34:12.707Z,10.20
2023-02-18T20:36:42.462Z,10.20
2023-02-18T20:39:16.472Z,10.20
2023-02-18T20:41:45.830Z,10.40
2023-02-18T20:47:02.399Z,10.20
2023-02-18T20:49:31.748Z,10.10
2023-02-18T20:52:01.931Z,10.00
2023-02-18T20:54:32.490Z,10.10
2023-02-18T20:59:48.628Z,10.10
2023-02-18T21:02:17.904Z,10.00
2023-02-18T21:04:47.211Z,10.00
2023-02-18T21:10:05.127Z,10.00
2023-02-18T21:12:34.309Z,10.10
2023-02-18T21:15:03.381Z,10.10
2023-02-18T21:17:32.429Z,10.20
2023-02-18T21:20:02.072Z,10.30
2023-02-18T21:22:31.291Z,10.10
2023-02-18T21:25:00.664Z,10.20
2023-02-18T21:27:33.593Z,10.20
2023-02-18T21:30:04.415Z,10.20
2023-02-18T21:32:33.624Z,10.10
2023-02-18T21:35:02.952Z,9.80
2023-02-18T21:37:32.109Z,10.10
2023-02-18T21:40:02.472Z,10.10
2023-02-18T21:42:34.221Z,9.90
2023-02-18T21:45:03.325Z,10.10
2023-02-18T21:47:32.376Z,10.10
2023-02-18T21:50:01.496Z,10.00
2023-02-18T21:52:32.480Z,10.10
2023-02-18T21:55:01.653Z,10.20
2023-02-18T21:57:32.546Z,10.10
2023-02-18T22:00:11.313Z,10.10
2023-02-18T22:02:47.537Z,10.20
2023-02-18T22:05:16.759Z,10.20
2023-02-18T22:07:45.775Z,10.30
2023-02-18T22:10:14.879Z,10.10
2023-02-18T22:12:45.307Z,10.00
2023-02-18T22:15:15.757Z,10.00
2023-02-18T22:17:44.821Z,10.00
2023-02-18T22:20:13.972Z,10.10
2023-02-18T22:22:43.032Z,10.00
2023-02-18T22:25:12.510Z,9.90
2023-02-18T22:30:29.727Z,10.10
2023-02-18T22:32:58.906Z,9.90
2023-02-18T22:35:27.925Z,10.00
2023-02-18T22:37:57.164Z,9.90
2023-02-18T22:40:26.358Z,10.10
2023-02-18T22:45:43.507Z,10.10
2023-02-18T22:48:12.596Z,9.90
2023-02-18T22:50:41.672Z,9.80
2023-02-18T22:53:10.673Z,9.70
2023-02-18T22:55:39.672Z,9.80
2023-02-18T22:58:08.749Z,9.80
2023-02-18T23:03:25.637Z,9.90
2023-02-18T23:05:54.721Z,9.80
2023-02-18T23:08:24.067Z,9.70
2023-02-18T23:11:02.291Z,9.80
2023-02-18T23:13:31.392Z,9.80
2023-02-18T23:16:01.331Z,9.60
2023-02-18T23:18:51.252Z,9.80
2023-02-18T23:24:08.108Z,9.90
2023-02-18T23:26:37.162Z,9.70
2023-02-18T23:29:06.960Z,9.50
2023-02-18T23:31:43.241Z,9.50
2023-02-18T23:34:16.405Z,9.70
2023-02-18T23:36:47.585Z,9.80
2023-02-18T23:39:37.182Z,9.70
2023-02-18T23:42:06.798Z,9.80
2023-02-18T23:44:52.996Z,9.60
2023-02-18T23:47:39.146Z,9.70
2023-02-18T23:50:09.956Z,9.90
2023-02-18T23:52:39.067Z,9.70
2023-02-18T23:55:08.465Z,9.60
2023-02-18T23:57:37.778Z,9.70
